createdAt,value
2023-04-13T00:02:46.892Z,100183.00
2023-04-13T00:07:53.055Z,100172.31
2023-04-13T00:12:59.653Z,100160.34
2023-04-13T00:18:06.134Z,100147.19
2023-04-13T00:23:11.965Z,100139.31
2023-04-13T00:28:18.007Z,100160.47
2023-04-13T00:33:23.375Z,100149.25
2023-04-13T00:38:29.633Z,100148.88
2023-04-13T00:43:36.303Z,100157.31
2023-04-13T00:48:41.295Z,100130.88
2023-04-13T00:53:46.628Z,100110.16
2023-04-13T00:58:53.148Z,100118.81
2023-04-13T01:03:58.535Z,100108.34
2023-04-13T01:09:22.480Z,100104.63
2023-04-13T01:14:41.974Z,100108.50
2023-04-13T01:20:10.495Z,100095.13
2023-04-13T01:25:33.006Z,100090.91
2023-04-13T01:30:38.644Z,100100.72
2023-04-13T01:35:44.677Z,100104.34
2023-04-13T01:40:53.427Z,100095.38
2023-04-13T01:46:20.968Z,100094.88
2023-04-13T01:51:36.951Z,100095.41
2023-04-13T01:56:46.804Z,100119.13
2023-04-13T02:01:52.022Z,100100.38
2023-04-13T02:06:58.602Z,100090.56
2023-04-13T02:12:09.497Z,100096.09
2023-04-13T02:17:17.117Z,100093.44
2023-04-13T02:22:23.561Z,100097.44
2023-04-13T02:27:30.114Z,100070.97
2023-04-13T02:32:37.085Z,100062.72
2023-04-13T02:37:42.553Z,100056.06
2023-04-13T02:42:50.482Z,100051.56
2023-04-13T02:47:55.997Z,100082.38
2023-04-13T02:53:02.746Z,100052.81
2023-04-13T02:58:10.710Z,100057.53
2023-04-13T03:03:18.278Z,100069.53
2023-04-13T03:08:25.251Z,100051.00
2023-04-13T03:13:51.322Z,100044.16
2023-04-13T03:18:57.335Z,100024.22
2023-04-13T03:24:03.568Z,100022.09
2023-04-13T03:29:08.926Z,99997.66
2023-04-13T03:34:19.289Z,99997.41
2023-04-13T03:39:25.101Z,99998.06
2023-04-13T03:44:30.683Z,99985.78
2023-04-13T03:49:37.428Z,99956.78
2023-04-13T03:54:42.666Z,99973.66
2023-04-13T03:59:48.665Z,99952.84
2023-04-13T04:05:03.258Z,99941.94
2023-04-13T04:10:09.568Z,99947.72
2023-04-13T04:15:14.383Z,99934.69
2023-04-13T04:20:21.498Z,99921.41
2023-04-13T04:25:28.860Z,99918.22
2023-04-13T04:30:35.399Z,99928.16
2023-04-13T04:35:52.699Z,99916.97
2023-04-13T04:41:03.628Z,99900.25
2023-04-13T04:46:10.194Z,99911.16
2023-04-13T04:51:26.069Z,99924.44
2023-04-13T04:56:32.558Z,99891.31
2023-04-13T05:01:37.968Z,99880.09
2023-04-13T05:06:50.611Z,99869.72
2023-04-13T05:12:01.010Z,99877.63
2023-04-13T05:17:07.576Z,99860.22
2023-04-13T05:22:18.409Z,99855.13
2023-04-13T05:27:35.292Z,99852.16
2023-04-13T05:32:40.645Z,99841.41
2023-04-13T05:37:49.032Z,99848.16
2023-04-13T05:43:00.128Z,99842.81
2023-04-13T05:48:11.110Z,99846.97
2023-04-13T05:53:16.204Z,99840.25
2023-04-13T05:58:27.528Z,99846.41
2023-04-13T06:03:46.238Z,99854.81
2023-04-13T06:08:51.159Z,99847.06
2023-04-13T06:13:58.094Z,99853.50
2023-04-13T06:19:04.609Z,99832.25
2023-04-13T06:24:10.905Z,99829.56
2023-04-13T06:29:16.475Z,99817.66
2023-04-13T06:34:31.614Z,99814.38
2023-04-13T06:39:38.844Z,99808.19
2023-04-13T06:44:46.351Z,99808.19
2023-04-13T06:49:53.316Z,99802.97
2023-04-13T06:54:59.995Z,99794.25
2023-04-13T07:00:28.787Z,99781.25
2023-04-13T07:05:35.880Z,99767.22
2023-04-13T07:10:47.544Z,99789.03
2023-04-13T07:16:02.620Z,99768.47
2023-04-13T07:21:11.478Z,99762.59
2023-04-13T07:26:41.398Z,99774.91
2023-04-13T07:31:46.948Z,99759.97
2023-04-13T07:36:53.718Z,99775.13
2023-04-13T07:42:00.340Z,99743.59
2023-04-13T07:47:26.039Z,99746.34
2023-04-13T07:52:37.279Z,99748.25
2023-04-13T07:57:43.613Z,99750.69
2023-04-13T08:02:48.296Z,99759.59
2023-04-13T08:07:58.901Z,99758.22
2023-04-13T08:13:04.082Z,99747.44
2023-04-13T08:18:09.252Z,99758.75
2023-04-13T08:23:14.558Z,99765.78
2023-04-13T08:28:20.122Z,99759.28
2023-04-13T08:33:25.543Z,99762.00
2023-04-13T08:38:31.083Z,99757.19
2023-04-13T08:43:40.192Z,99762.78
2023-04-13T08:48:53.900Z,99759.44
2023-04-13T08:54:05.817Z,99768.00
2023-04-13T08:59:16.656Z,99798.19
2023-04-13T09:04:26.548Z,99798.66
2023-04-13T09:09:39.611Z,99802.31
2023-04-13T09:14:47.106Z,99799.22
2023-04-13T09:19:52.461Z,99809.84
2023-04-13T09:24:57.827Z,99813.53
2023-04-13T09:30:03.513Z,99817.19
2023-04-13T09:35:09.883Z,99814.63
2023-04-13T09:40:17.945Z,99818.50
2023-04-13T09:45:23.936Z,99838.56
2023-04-13T09:50:29.813Z,99851.09
2023-04-13T09:55:36.317Z,99841.84
2023-04-13T10:00:46.873Z,99846.00
2023-04-13T10:05:59.562Z,99851.50
2023-04-13T10:11:05.935Z,99862.81
2023-04-13T10:16:37.980Z,99858.84
2023-04-13T10:21:45.281Z,99872.06
2023-04-13T10:26:54.506Z,99872.88
2023-04-13T10:32:06.814Z,99891.41
2023-04-13T10:37:25.794Z,99889.81
2023-04-13T10:47:54.227Z,99923.91
2023-04-13T10:53:08.137Z,99956.66
2023-04-13T10:58:21.318Z,99929.00
2023-04-13T11:03:30.252Z,99937.06
2023-04-13T11:08:37.725Z,99942.19
2023-04-13T11:13:49.456Z,99950.00
2023-04-13T11:19:04.923Z,99980.34
2023-04-13T11:24:11.273Z,99953.97
2023-04-13T11:29:20.354Z,99980.28
2023-04-13T11:34:29.861Z,99987.03
2023-04-13T11:39:37.656Z,99994.59
2023-04-13T11:44:46.800Z,100009.59
2023-04-13T11:49:53.947Z,100022.50
2023-04-13T11:55:10.716Z,100028.13
2023-04-13T12:00:28.935Z,100038.13
2023-04-13T12:05:35.722Z,100049.97
2023-04-13T12:10:51.795Z,100056.69
2023-04-13T12:16:17.777Z,100065.59
2023-04-13T12:21:24.339Z,100064.03
2023-04-13T12:31:48.858Z,100108.28
2023-04-13T12:36:55.567Z,100098.44
2023-04-13T12:42:01.302Z,100099.34
2023-04-13T12:47:07.389Z,100112.78
2023-04-13T12:52:13.029Z,100111.50
2023-04-13T12:57:20.071Z,100126.91
2023-04-13T13:02:27.326Z,100139.31
2023-04-13T13:07:33.016Z,100148.22
2023-04-13T13:12:38.744Z,100151.19
2023-04-13T13:17:46.783Z,100155.72
2023-04-13T13:22:53.156Z,100167.88
2023-04-13T13:33:08.016Z,100189.19
2023-04-13T13:38:13.773Z,100235.28
2023-04-13T13:43:22.542Z,100193.72
2023-04-13T13:48:28.500Z,100205.28
2023-04-13T13:53:54.011Z,100201.59
2023-04-13T13:59:00.320Z,100215.97
2023-04-13T14:04:06.588Z,100228.53
2023-04-13T14:09:12.402Z,100229.56
2023-04-13T14:14:21.979Z,100233.50
2023-04-13T14:19:28.362Z,100274.22
2023-04-13T14:24:33.707Z,100246.88
2023-04-13T14:29:40.441Z,100252.66
2023-04-13T14:34:47.576Z,100279.19
2023-04-13T14:39:56.556Z,100248.59
2023-04-13T14:45:01.896Z,100257.44
2023-04-13T14:50:09.577Z,100251.09
2023-04-13T14:55:16.879Z,100262.38
2023-04-13T15:00:40.560Z,100262.00
2023-04-13T15:05:47.640Z,100271.47
2023-04-13T15:10:53.254Z,100293.06
2023-04-13T15:15:58.928Z,100275.81
2023-04-13T15:21:08.225Z,100274.34
2023-04-13T15:26:20.471Z,100275.78
2023-04-13T15:31:29.904Z,100288.94
2023-04-13T15:36:35.272Z,100294.72
2023-04-13T15:41:41.495Z,100304.16
2023-04-13T15:46:49.279Z,100313.63
2023-04-13T15:51:58.060Z,100320.00
2023-04-13T15:57:11.579Z,100318.34
2023-04-13T16:02:17.160Z,100327.78
2023-04-13T16:07:27.162Z,100338.88
2023-04-13T16:12:33.906Z,100343.19
2023-04-13T16:17:41.616Z,100358.16
2023-04-13T16:22:54.119Z,100360.41
2023-04-13T16:27:58.973Z,100361.41
2023-04-13T16:33:05.508Z,100374.09
2023-04-13T16:38:13.731Z,100406.09
2023-04-13T16:43:19.069Z,100434.22
2023-04-13T16:48:25.738Z,100404.63
2023-04-13T16:53:30.693Z,100413.25
2023-04-13T16:58:35.539Z,100398.47
2023-04-13T17:03:40.456Z,100403.00
2023-04-13T17:08:45.630Z,100401.34
2023-04-13T17:13:50.792Z,100423.69
2023-04-13T17:18:56.124Z,100432.31
2023-04-13T17:24:01.232Z,100468.97
2023-04-13T17:29:06.321Z,100449.88
2023-04-13T17:34:11.225Z,100467.66
2023-04-13T17:39:16.932Z,100479.34
2023-04-13T17:44:22.061Z,100476.06
2023-04-13T17:49:29.267Z,100491.44
2023-04-13T17:54:36.163Z,100489.97
2023-04-13T17:59:43.106Z,100507.19
2023-04-13T18:04:49.303Z,100503.69
2023-04-13T18:09:54.316Z,100500.38
2023-04-13T18:14:59.208Z,100519.63
2023-04-13T18:20:04.664Z,100511.84
2023-04-13T18:25:09.795Z,100513.88
2023-04-13T18:30:17.204Z,100506.25
2023-04-13T18:35:22.060Z,100507.66
2023-04-13T18:40:27.752Z,100503.91
2023-04-13T18:45:33.664Z,100506.34
2023-04-13T18:50:39.544Z,100514.53
2023-04-13T18:55:53.614Z,100512.63
2023-04-13T19:00:58.341Z,100509.78
2023-04-13T19:06:03.173Z,100510.34
2023-04-13T19:11:08.255Z,100503.56
2023-04-13T19:16:15.270Z,100510.50
2023-04-13T19:21:26.059Z,100501.22
2023-04-13T19:26:31.913Z,100492.16
2023-04-13T19:31:41.831Z,100529.19
2023-04-13T19:36:46.647Z,100481.75
2023-04-13T19:41:51.610Z,100479.28
2023-04-13T19:46:56.576Z,100494.00
2023-04-13T19:52:01.555Z,100491.03
2023-04-13T19:57:06.702Z,100495.75
2023-04-13T20:02:12.025Z,100533.56
2023-04-13T20:07:17.919Z,100549.34
2023-04-13T20:12:22.934Z,100514.75
2023-04-13T20:17:27.696Z,100518.59
2023-04-13T20:22:33.844Z,100519.63
2023-04-13T20:27:43.012Z,100528.25
2023-04-13T20:32:47.811Z,100543.84
2023-04-13T20:37:53.157Z,100547.16
2023-04-13T20:42:59.715Z,100550.44
2023-04-13T20:53:14.817Z,100568.06
2023-04-13T20:58:19.754Z,100561.09
2023-04-13T21:03:25.204Z,100576.88
2023-04-13T21:08:30.850Z,100574.69
2023-04-13T21:13:35.531Z,100579.84
2023-04-13T21:18:40.307Z,100583.94
2023-04-13T21:23:45.003Z,100591.75
2023-04-13T21:28:50.151Z,100607.72
2023-04-13T21:33:56.578Z,100616.53
2023-04-13T21:39:01.884Z,100624.34
2023-04-13T21:44:11.485Z,100624.34
2023-04-13T21:49:21.235Z,100631.34
2023-04-13T21:54:26.186Z,100633.81
2023-04-13T21:59:31.201Z,100635.00
2023-04-13T22:04:36.122Z,100635.00
2023-04-13T22:09:41.386Z,100651.63
2023-04-13T22:14:46.308Z,100658.59
2023-04-13T22:19:51.678Z,100670.53
2023-04-13T22:24:56.782Z,100685.78
2023-04-13T22:30:01.784Z,100688.44
2023-04-13T22:35:07.236Z,100713.72
2023-04-13T22:40:12.828Z,100724.19
2023-04-13T22:45:17.564Z,100729.28
2023-04-13T22:50:23.456Z,100733.69
2023-04-13T22:55:28.284Z,100725.38
2023-04-13T23:00:33.335Z,100728.47
2023-04-13T23:05:38.150Z,100742.44
2023-04-13T23:10:43.337Z,100763.63
2023-04-13T23:15:49.359Z,100773.53
2023-04-13T23:20:54.576Z,100777.66
2023-04-13T23:25:59.416Z,100791.06
2023-04-13T23:31:11.025Z,100789.53
2023-04-13T23:36:17.374Z,100794.13
2023-04-13T23:41:22.559Z,100799.53
2023-04-13T23:46:27.702Z,100802.41
2023-04-13T23:51:32.555Z,100813.34
2023-04-13T23:56:38.698Z,100825.50
